Time;durP1;ratioP1;P1;durP2;ratioP2;P2;SDS_P1;SDS_P2;PMS_P1;PMS_P2;Temp;Humidity;BMP_temperature;BMP_pressure;BME280_temperature;BME280_humidity;BME280_pressure;Samples;Min_cycle;Max_cycle;Signal;HPM_P1;HPM_P2
2023/05/18 00:01:55;;;;;;;356.27;326.90;;;;;;;14.24;100.00;100696.06;5048316;28;20122;-76
2023/05/18 00:04:24;;;;;;;332.42;304.65;;;;;;;14.21;100.00;100693.84;5050494;28;20508;-76
2023/05/18 00:06:55;;;;;;;295.35;271.27;;;;;;;14.27;100.00;100700.94;5047999;28;20072;-76
2023/05/18 00:09:23;;;;;;;290.08;267.35;;;;;;;14.34;100.00;100695.50;5042400;28;20049;-76
2023/05/18 00:11:50;;;;;;;292.67;269.35;;;;;;;14.30;100.00;100689.00;5047526;28;20045;-75
2023/05/18 00:14:17;;;;;;;291.50;267.98;;;;;;;14.22;100.00;100695.50;5051516;28;20084;-75
2023/05/18 00:16:44;;;;;;;124.47;113.07;;;;;;;14.28;100.00;100693.75;5049497;28;20048;-75
2023/05/18 00:19:13;;;;;;;119.78;108.55;;;;;;;14.32;100.00;100685.06;5045205;28;20505;-75
2023/05/18 00:21:42;;;;;;;133.93;122.13;;;;;;;14.36;100.00;100685.41;5049479;28;20558;-76
2023/05/18 00:24:10;;;;;;;249.48;230.13;;;;;;;14.41;100.00;100685.53;5050211;28;20056;-75
2023/05/18 00:26:38;;;;;;;254.85;235.05;;;;;;;14.33;100.00;100681.31;5049386;28;20401;-75
2023/05/18 00:29:05;;;;;;;253.32;233.95;;;;;;;14.39;100.00;100675.06;5047405;28;20056;-75
2023/05/18 00:31:35;;;;;;;257.13;236.60;;;;;;;14.39;100.00;100667.03;5049583;28;20052;-76
2023/05/18 00:34:02;;;;;;;230.90;211.70;;;;;;;14.31;100.00;100671.91;5048398;28;20045;-76
2023/05/18 00:36:30;;;;;;;244.63;225.70;;;;;;;14.30;100.00;100686.31;5050512;28;20136;-76
2023/05/18 00:38:58;;;;;;;244.43;225.55;;;;;;;14.31;100.00;100674.59;5046363;28;20049;-75
2023/05/18 00:41:26;;;;;;;258.42;238.82;;;;;;;14.31;100.00;100680.75;5042036;28;20045;-76
2023/05/18 00:43:53;;;;;;;241.85;223.55;;;;;;;14.30;100.00;100679.13;5047962;28;20136;-76
2023/05/18 00:46:20;;;;;;;230.20;212.50;;;;;;;14.32;100.00;100677.03;5043681;28;20057;-76
2023/05/18 00:48:48;;;;;;;242.32;224.20;;;;;;;14.31;100.00;100672.75;5049924;28;20064;-76
2023/05/18 00:51:15;;;;;;;236.20;217.90;;;;;;;14.33;100.00;100681.31;5047160;28;20052;-76
2023/05/18 00:53:42;;;;;;;244.15;225.68;;;;;;;14.18;100.00;100695.13;5049563;28;20049;-77
2023/05/18 00:56:11;;;;;;;233.57;215.80;;;;;;;14.26;100.00;100699.34;5048257;28;20452;-76
2023/05/18 00:58:38;;;;;;;240.90;222.80;;;;;;;14.19;100.00;100699.44;5043722;28;20048;-76
2023/05/18 01:01:05;;;;;;;244.70;226.15;;;;;;;14.19;100.00;100698.59;5048639;28;20425;-76
2023/05/18 01:03:33;;;;;;;246.40;227.95;;;;;;;14.18;100.00;100689.78;5041483;28;20490;-77
2023/05/18 01:06:00;;;;;;;232.75;215.55;;;;;;;14.20;100.00;100677.03;5045059;28;20052;-76
2023/05/18 01:08:28;;;;;;;225.80;209.07;;;;;;;14.26;100.00;100695.84;5045698;28;20432;-76
2023/05/18 01:11:07;;;;;;;203.82;188.68;;;;;;;14.31;100.00;100703.97;5049095;28;20475;-76
2023/05/18 01:13:43;;;;;;;230.93;213.77;;;;;;;14.02;100.00;100698.47;5048105;28;20052;-76
2023/05/18 01:16:12;;;;;;;275.00;255.27;;;;;;;13.88;100.00;100705.88;5048457;28;20049;-76
2023/05/18 01:18:47;;;;;;;239.75;222.13;;;;;;;13.92;100.00;100700.91;5049061;28;20059;-76
2023/05/18 01:21:24;;;;;;;278.15;259.13;;;;;;;13.93;100.00;100713.19;5048892;28;20151;-76
2023/05/18 01:24:06;;;;;;;144.93;132.40;;;;;;;14.06;100.00;100696.97;5049372;28;20128;-76
2023/05/18 01:26:36;;;;;;;166.90;151.47;;;;;;;13.99;100.00;100706.94;5048810;28;20052;-76
2023/05/18 01:29:06;;;;;;;193.50;173.70;;;;;;;14.02;100.00;100711.84;5043266;28;20746;-76
2023/05/18 01:31:33;;;;;;;163.10;146.45;;;;;;;14.04;100.00;100701.75;5041629;28;20041;-76
2023/05/18 01:34:00;;;;;;;133.27;120.60;;;;;;;13.96;100.00;100716.22;5046658;28;20050;-76
2023/05/18 01:36:27;;;;;;;129.23;117.30;;;;;;;13.99;100.00;100709.63;5048019;28;20056;-76
2023/05/18 01:38:56;;;;;;;135.25;123.43;;;;;;;13.99;100.00;100709.63;5046078;28;20045;-76
2023/05/18 01:41:25;;;;;;;119.45;108.55;;;;;;;13.76;100.00;100697.00;5040979;28;20047;-76
2023/05/18 01:44:01;;;;;;;124.80;113.57;;;;;;;13.68;100.00;100703.50;5046687;28;20041;-76
2023/05/18 01:46:40;;;;;;;121.55;110.32;;;;;;;13.85;100.00;100713.53;5039669;28;20080;-76
2023/05/18 01:49:13;;;;;;;141.55;128.85;;;;;;;13.74;100.00;100705.25;5043577;28;20467;-76
2023/05/18 01:51:45;;;;;;;122.50;111.20;;;;;;;13.59;100.00;100712.84;5045251;28;20067;-76
2023/05/18 01:54:16;;;;;;;118.93;107.68;;;;;;;13.64;100.00;100714.84;5042186;28;20045;-76
2023/05/18 01:56:44;;;;;;;126.55;115.00;;;;;;;13.79;100.00;100715.22;5045200;28;20487;-76
2023/05/18 01:59:14;;;;;;;124.15;112.63;;;;;;;13.80;100.00;100716.88;5019025;28;20535;-77
2023/05/18 02:01:41;;;;;;;133.40;121.55;;;;;;;13.63;100.00;100714.03;5048045;28;20409;-76
2023/05/18 02:04:09;;;;;;;133.32;121.05;;;;;;;13.54;100.00;100710.03;5048440;28;20483;-76
2023/05/18 02:06:36;;;;;;;144.13;131.35;;;;;;;13.57;100.00;100704.25;5047272;28;20517;-77
2023/05/18 02:09:04;;;;;;;140.70;127.97;;;;;;;13.37;100.00;100704.50;5041423;28;20052;-76
2023/05/18 02:11:31;;;;;;;145.02;132.18;;;;;;;13.33;100.00;100706.00;5046168;28;20041;-76
2023/05/18 02:13:58;;;;;;;136.80;124.30;;;;;;;13.61;100.00;100721.44;5042286;28;20045;-76
2023/05/18 02:16:26;;;;;;;126.13;114.50;;;;;;;13.78;100.00;100728.81;5042514;28;20052;-76
2023/05/18 02:18:53;;;;;;;127.25;115.07;;;;;;;13.74;100.00;100729.28;5045573;28;20053;-77
2023/05/18 02:21:20;;;;;;;132.05;120.32;;;;;;;13.71;100.00;100732.41;5046256;28;20142;-76
2023/05/18 02:23:47;;;;;;;123.47;112.18;;;;;;;13.66;100.00;100734.09;5039341;28;20053;-76
2023/05/18 02:26:14;;;;;;;144.88;132.23;;;;;;;13.65;100.00;100730.63;5046779;28;20052;-76
2023/05/18 02:28:41;;;;;;;133.98;121.82;;;;;;;13.76;100.00;100731.69;5047762;28;20508;-76
2023/05/18 02:31:10;;;;;;;124.03;112.53;;;;;;;13.74;100.00;100733.81;5043046;28;20044;-76
2023/05/18 02:33:39;;;;;;;126.57;114.80;;;;;;;13.70;100.00;100738.75;5043115;28;20064;-76
2023/05/18 02:36:08;;;;;;;126.97;115.43;;;;;;;13.60;100.00;100733.16;5041551;28;20080;-76
2023/05/18 02:38:37;;;;;;;130.02;118.35;;;;;;;13.78;100.00;100731.50;5041642;28;20045;-76
2023/05/18 02:41:04;;;;;;;125.15;114.03;;;;;;;13.70;100.00;100736.09;5048090;28;20037;-76
2023/05/18 02:43:31;;;;;;;99.90;90.40;;;;;;;13.75;100.00;100738.91;5044534;28;20420;-76
2023/05/18 02:45:58;;;;;;;126.32;115.07;;;;;;;13.74;100.00;100747.16;5044234;28;20075;-77
2023/05/18 02:48:25;;;;;;;110.05;99.63;;;;;;;13.72;100.00;100759.91;5043760;28;20064;-76
2023/05/18 02:50:54;;;;;;;106.38;96.40;;;;;;;13.67;100.00;100751.75;5047109;28;20044;-76
2023/05/18 02:53:20;;;;;;;112.70;102.90;;;;;;;13.75;100.00;100751.44;5043701;28;20057;-76
2023/05/18 02:55:47;;;;;;;110.88;100.78;;;;;;;13.76;100.00;100750.38;5043560;28;20559;-76
2023/05/18 02:58:14;;;;;;;91.40;82.88;;;;;;;13.77;100.00;100752.03;5046937;28;20052;-76
2023/05/18 03:00:42;;;;;;;86.10;78.00;;;;;;;13.78;100.00;100761.66;5047171;28;20548;-77
2023/05/18 03:03:14;;;;;;;92.90;84.50;;;;;;;13.80;100.00;100758.75;5041774;28;20049;-76
2023/05/18 03:05:42;;;;;;;;;;;;;;;13.88;100.00;100751.25;5048327;28;20044;-76
2023/05/18 03:08:10;;;;;;;80.63;72.93;;;;;;;13.80;100.00;100764.09;5047575;28;19924;-76
2023/05/18 03:10:37;;;;;;;77.68;70.07;;;;;;;13.74;100.00;100755.97;5050855;28;20056;-76
2023/05/18 03:13:04;;;;;;;78.65;70.88;;;;;;;13.69;100.00;100763.00;5049103;28;20045;-76
2023/05/18 03:15:31;;;;;;;77.32;69.88;;;;;;;13.65;100.00;100769.84;5043104;28;20051;-76
2023/05/18 03:17:59;;;;;;;79.05;71.32;;;;;;;13.69;100.00;100766.50;5043685;28;20056;-75
2023/05/18 03:20:26;;;;;;;77.38;70.07;;;;;;;13.62;100.00;100772.97;5046531;28;20045;-75
2023/05/18 03:22:53;;;;;;;77.57;70.38;;;;;;;13.65;100.00;100769.84;5045517;28;20048;-76
2023/05/18 03:25:24;;;;;;;117.50;108.22;;;;;;;13.56;100.00;100773.88;5045949;28;20425;-76
2023/05/18 03:27:51;;;;;;;113.60;105.35;;;;;;;13.59;100.00;100773.41;5045096;28;20473;-75
2023/05/18 03:30:18;;;;;;;137.90;127.85;;;;;;;13.58;100.00;100779.78;5050035;28;20049;-75
2023/05/18 03:32:47;;;;;;;76.68;69.68;;;;;;;13.63;100.00;100782.59;5050746;28;20051;-75
2023/05/18 03:35:14;;;;;;;75.80;68.45;;;;;;;13.59;100.00;100784.09;5041080;28;20428;-76
2023/05/18 03:37:41;;;;;;;79.47;71.72;;;;;;;13.75;100.00;100786.13;5048321;28;20151;-75
2023/05/18 03:40:10;;;;;;;75.40;68.63;;;;;;;13.79;100.00;100789.97;5049835;28;20076;-75
2023/05/18 03:42:39;;;;;;;94.15;86.55;;;;;;;13.80;100.00;100785.44;5050890;28;20037;-75
2023/05/18 03:45:08;;;;;;;96.45;89.05;;;;;;;13.69;100.00;100787.84;5047708;28;20044;-75
2023/05/18 03:47:34;;;;;;;97.63;90.22;;;;;;;13.73;100.00;100785.53;5050522;28;20052;-76
2023/05/18 03:50:01;;;;;;;102.00;94.40;;;;;;;13.71;100.00;100791.13;5042568;28;20053;-76
2023/05/18 03:52:29;;;;;;;108.30;99.82;;;;;;;13.69;100.00;100798.53;5049795;28;20451;-76
2023/05/18 03:54:56;;;;;;;84.93;77.63;;;;;;;13.73;100.00;100793.53;5049217;28;20053;-76
2023/05/18 03:57:23;;;;;;;83.25;76.18;;;;;;;13.68;100.00;100801.44;5049437;28;20057;-76
2023/05/18 03:59:51;;;;;;;85.35;78.57;;;;;;;13.77;100.00;100800.09;5046813;28;20052;-76
2023/05/18 04:02:18;;;;;;;101.30;93.28;;;;;;;13.73;100.00;100798.88;5045337;28;20041;-76
2023/05/18 04:04:46;;;;;;;107.40;99.47;;;;;;;13.69;100.00;100806.53;5046339;28;20052;-76
2023/05/18 04:07:15;;;;;;;125.45;116.45;;;;;;;13.58;100.00;100809.94;5040635;28;20057;-76
2023/05/18 04:09:42;;;;;;;118.60;109.60;;;;;;;13.60;100.00;100817.75;5049957;28;20127;-76
2023/05/18 04:12:09;;;;;;;112.70;104.22;;;;;;;13.64;100.00;100813.56;5052272;28;20444;-76
2023/05/18 04:14:36;;;;;;;118.78;109.88;;;;;;;13.61;100.00;100819.38;5051581;28;20053;-76
2023/05/18 04:17:05;;;;;;;116.95;108.20;;;;;;;13.65;100.00;100824.03;5045172;28;20520;-77
2023/05/18 04:19:32;;;;;;;109.25;101.03;;;;;;;13.82;100.00;100823.41;5051740;28;20056;-76
2023/05/18 04:21:59;;;;;;;94.03;86.80;;;;;;;13.87;100.00;100827.06;5056565;28;20072;-76
2023/05/18 04:24:26;;;;;;;97.18;89.25;;;;;;;13.82;100.00;100834.09;5056937;28;20071;-77
2023/05/18 04:26:53;;;;;;;101.78;93.65;;;;;;;13.83;100.00;100841.06;5055063;28;20496;-75
2023/05/18 04:29:21;;;;;;;87.35;80.13;;;;;;;13.75;100.00;100844.88;5048897;28;20053;-76
2023/05/18 04:31:48;;;;;;;88.82;81.78;;;;;;;13.76;100.00;100843.81;5048052;28;20069;-76
2023/05/18 04:34:18;;;;;;;97.55;90.03;;;;;;;13.72;100.00;100854.13;5046551;28;20049;-75
2023/05/18 04:36:45;;;;;;;97.55;89.72;;;;;;;13.75;100.00;100856.34;5050604;28;20063;-76
2023/05/18 04:39:12;;;;;;;91.57;84.45;;;;;;;13.88;100.00;100859.91;5047384;28;20059;-75
2023/05/18 04:41:40;;;;;;;100.18;92.40;;;;;;;13.86;100.00;100862.81;5045781;28;20513;-76
2023/05/18 04:44:08;;;;;;;107.65;99.50;;;;;;;13.74;100.00;100873.41;5044451;28;20553;-76
2023/05/18 04:46:38;;;;;;;101.50;93.60;;;;;;;13.65;100.00;100864.06;5044313;28;20694;-75
2023/05/18 04:49:05;;;;;;;98.28;90.18;;;;;;;13.66;100.00;100865.69;5045145;28;20072;-76
2023/05/18 04:51:36;;;;;;;103.10;95.05;;;;;;;13.69;100.00;100878.59;5045303;28;20052;-75
2023/05/18 04:54:03;;;;;;;114.65;106.32;;;;;;;13.67;100.00;100866.50;5045968;28;20045;-75
2023/05/18 04:56:30;;;;;;;102.38;93.47;;;;;;;13.64;100.00;100866.94;5047511;28;20080;-76
2023/05/18 04:58:58;;;;;;;80.32;72.70;;;;;;;13.61;100.00;100870.88;5045017;28;20044;-76
2023/05/18 05:01:25;;;;;;;82.53;75.35;;;;;;;13.45;100.00;100858.13;5044227;28;20048;-76
2023/05/18 05:03:52;;;;;;;83.78;76.53;;;;;;;13.35;100.00;100858.66;5046371;28;20049;-76
2023/05/18 05:06:19;;;;;;;94.03;86.07;;;;;;;13.42;100.00;100864.72;5050801;28;20110;-75
2023/05/18 05:08:47;;;;;;;97.05;88.35;;;;;;;13.85;100.00;100858.50;5044105;28;20114;-75
2023/05/18 05:11:14;;;;;;;95.78;87.45;;;;;;;13.97;100.00;100863.91;5049673;28;20435;-75
2023/05/18 05:13:41;;;;;;;97.05;88.65;;;;;;;13.97;100.00;100867.38;5047592;28;20049;-76
2023/05/18 05:16:08;;;;;;;97.22;88.88;;;;;;;14.07;100.00;100874.88;5045301;28;20049;-75
2023/05/18 05:18:37;;;;;;;102.28;92.82;;;;;;;14.06;100.00;100880.44;5045934;28;20501;-75
2023/05/18 05:21:06;;;;;;;104.00;95.30;;;;;;;13.91;100.00;100878.13;5045065;28;20103;-75
2023/05/18 05:23:35;;;;;;;103.28;94.10;;;;;;;14.04;100.00;100887.84;5044521;28;20044;-75
2023/05/18 05:26:04;;;;;;;99.78;91.28;;;;;;;14.22;100.00;100890.50;5042514;28;20107;-76
2023/05/18 05:28:33;;;;;;;101.65;92.85;;;;;;;14.14;100.00;100890.81;5044030;28;20053;-76
2023/05/18 05:31:00;;;;;;;100.03;91.07;;;;;;;13.97;100.00;100898.59;5040083;28;20045;-76
2023/05/18 05:33:27;;;;;;;106.22;96.53;;;;;;;14.23;100.00;100897.47;5038595;28;20056;-75
2023/05/18 05:35:54;;;;;;;102.78;93.22;;;;;;;14.39;100.00;100906.72;5045190;28;20056;-76
2023/05/18 05:38:21;;;;;;;106.10;96.32;;;;;;;14.38;100.00;100910.44;5045793;28;20049;-75
2023/05/18 05:40:48;;;;;;;107.43;97.50;;;;;;;14.10;100.00;100906.47;5031478;28;20063;-75
2023/05/18 05:43:16;;;;;;;127.03;113.75;;;;;;;14.28;100.00;100910.13;5043303;28;20387;-76
2023/05/18 05:45:43;;;;;;;116.75;105.82;;;;;;;14.27;100.00;100917.34;5038940;28;20061;-76
2023/05/18 05:48:11;;;;;;;111.47;101.38;;;;;;;14.15;100.00;100917.28;5039961;28;20048;-76
2023/05/18 05:50:38;;;;;;;113.97;103.88;;;;;;;14.56;100.00;100920.28;5041893;28;20047;-76
2023/05/18 05:53:05;;;;;;;112.75;102.32;;;;;;;14.59;100.00;100926.00;5045513;28;20095;-76
2023/05/18 05:55:32;;;;;;;114.28;103.93;;;;;;;14.68;100.00;100917.66;5044456;28;20060;-75
2023/05/18 05:57:59;;;;;;;106.90;96.95;;;;;;;14.49;100.00;100919.53;5042667;28;20060;-76
2023/05/18 06:00:27;;;;;;;107.70;97.50;;;;;;;14.81;100.00;100920.94;5044453;28;20072;-75
2023/05/18 06:02:54;;;;;;;174.45;160.48;;;;;;;15.09;100.00;100927.50;5045359;28;20496;-75
2023/05/18 06:05:21;;;;;;;121.03;109.75;;;;;;;15.15;100.00;100925.78;5044796;28;20055;-76
2023/05/18 06:07:48;;;;;;;169.98;156.02;;;;;;;14.84;100.00;100925.03;5047607;28;20061;-75
2023/05/18 06:10:15;;;;;;;118.90;107.72;;;;;;;15.13;100.00;100934.03;5042630;28;20060;-75
2023/05/18 06:12:41;;;;;;;131.55;119.80;;;;;;;14.39;100.00;100928.91;5046862;28;20044;-76
2023/05/18 06:15:09;;;;;;;116.88;106.00;;;;;;;14.83;100.00;100926.06;5044679;28;20050;-76
2023/05/18 06:17:38;;;;;;;116.18;105.10;;;;;;;14.93;100.00;100926.31;5042209;28;20056;-76
2023/05/18 06:20:06;;;;;;;117.40;106.00;;;;;;;14.94;100.00;100927.13;5046422;28;20479;-76
2023/05/18 06:22:43;;;;;;;122.80;111.10;;;;;;;14.87;100.00;100914.69;5041146;28;20452;-75
2023/05/18 06:25:10;;;;;;;113.70;102.57;;;;;;;14.71;100.00;100920.69;5053731;28;20140;-76
2023/05/18 06:27:37;;;;;;;119.22;107.97;;;;;;;14.82;100.00;100921.75;5041896;28;20048;-76
2023/05/18 06:30:07;;;;;;;122.93;110.97;;;;;;;14.89;100.00;100930.50;5039255;28;20155;-75
2023/05/18 06:32:33;;;;;;;125.03;113.45;;;;;;;14.98;100.00;100928.31;5042662;28;20232;-75
2023/05/18 06:35:02;;;;;;;118.43;107.88;;;;;;;14.71;100.00;100931.38;5042455;28;20049;-76
2023/05/18 06:37:29;;;;;;;113.43;102.95;;;;;;;15.13;100.00;100934.03;5044054;28;20049;-75
2023/05/18 06:39:56;;;;;;;108.47;98.75;;;;;;;14.82;100.00;100929.78;5044434;28;20041;-76
2023/05/18 06:42:23;;;;;;;110.22;100.18;;;;;;;15.00;100.00;100939.59;5044168;28;20041;-75
2023/05/18 06:44:50;;;;;;;112.10;101.47;;;;;;;15.34;100.00;100941.50;5048358;28;20048;-76
2023/05/18 06:47:17;;;;;;;115.15;104.85;;;;;;;15.55;100.00;100936.59;5042161;28;20086;-76
2023/05/18 06:49:43;;;;;;;114.43;104.20;;;;;;;15.17;100.00;100940.56;5043344;28;20418;-76
2023/05/18 06:52:12;;;;;;;114.30;103.93;;;;;;;15.24;100.00;100933.22;5040419;28;20041;-76
2023/05/18 06:54:39;;;;;;;119.82;109.10;;;;;;;15.15;100.00;100939.97;5049514;28;20485;-76
2023/05/18 06:57:06;;;;;;;117.65;106.68;;;;;;;14.84;100.00;100933.84;5049916;28;20045;-76
2023/05/18 06:59:33;;;;;;;126.90;115.88;;;;;;;15.43;100.00;100941.13;5047148;28;20067;-76
2023/05/18 07:02:00;;;;;;;127.35;116.03;;;;;;;15.52;100.00;100951.28;5046818;28;20136;-76
2023/05/18 07:04:27;;;;;;;123.38;112.25;;;;;;;16.27;100.00;100957.72;5046994;28;20570;-75
2023/05/18 07:06:54;;;;;;;120.03;109.72;;;;;;;15.99;100.00;100947.78;5043811;28;20072;-76
2023/05/18 07:09:23;;;;;;;111.13;102.15;;;;;;;15.95;100.00;100946.63;5041347;28;20144;-76
2023/05/18 07:11:50;;;;;;;110.28;100.97;;;;;;;16.22;100.00;100949.59;5046799;28;20424;-76
2023/05/18 07:14:16;;;;;;;120.43;110.63;;;;;;;16.62;100.00;100952.22;5042329;28;20053;-76
2023/05/18 07:16:46;;;;;;;99.25;90.95;;;;;;;15.66;100.00;100948.38;5042236;28;20435;-75
2023/05/18 07:19:12;;;;;;;109.38;100.07;;;;;;;16.39;100.00;100946.97;5046542;28;20448;-76
2023/05/18 07:21:39;;;;;;;110.00;100.50;;;;;;;16.49;100.00;100944.50;5041582;28;20107;-76
2023/05/18 07:24:06;;;;;;;112.63;103.15;;;;;;;16.67;100.00;100956.84;5041168;28;20053;-76
2023/05/18 07:26:35;;;;;;;96.47;88.78;;;;;;;16.89;100.00;100952.47;5040927;28;20046;-75
2023/05/18 07:29:02;;;;;;;100.75;92.45;;;;;;;16.66;100.00;100953.38;5042024;28;20053;-76
2023/05/18 07:31:28;;;;;;;102.05;93.70;;;;;;;16.82;100.00;100961.72;5045569;28;20045;-76
2023/05/18 07:33:55;;;;;;;82.13;75.20;;;;;;;17.06;100.00;100951.66;5049621;28;20048;-76
2023/05/18 07:36:22;;;;;;;85.15;78.15;;;;;;;17.14;100.00;100952.09;5047272;28;20609;-76
2023/05/18 07:38:53;;;;;;;97.93;89.78;;;;;;;17.23;100.00;100970.47;5044199;28;20488;-76
2023/05/18 07:41:21;;;;;;;109.25;100.18;;;;;;;17.29;100.00;100974.88;5048088;28;20052;-76
2023/05/18 07:43:49;;;;;;;107.22;97.88;;;;;;;16.97;100.00;100972.72;5046928;28;20046;-79
2023/05/18 07:46:16;;;;;;;71.35;65.15;;;;;;;17.70;100.00;100978.16;5049218;28;20053;-76
2023/05/18 07:48:43;;;;;;;85.70;78.78;;;;;;;17.08;100.00;100977.22;5049592;28;20064;-76
2023/05/18 07:51:11;;;;;;;74.75;68.43;;;;;;;17.02;100.00;100972.81;5044595;28;20057;-76
2023/05/18 07:53:39;;;;;;;54.38;49.17;;;;;;;17.58;100.00;100972.91;5052975;28;20156;-77
2023/05/18 07:56:07;;;;;;;77.65;70.60;;;;;;;17.06;100.00;100984.69;5058772;28;20048;-76
2023/05/18 07:58:36;;;;;;;85.60;78.47;;;;;;;17.22;100.00;100988.47;5033004;28;20111;-76
2023/05/18 08:01:05;;;;;;;103.68;95.45;;;;;;;17.46;100.00;100989.09;5055216;28;20528;-75
2023/05/18 08:03:31;;;;;;;90.03;83.15;;;;;;;17.40;100.00;100990.09;5041565;28;20505;-75
2023/05/18 08:05:59;;;;;;;86.97;80.13;;;;;;;16.76;100.00;100989.50;5040074;28;20052;-76
2023/05/18 08:08:26;;;;;;;65.45;60.08;;;;;;;16.85;100.00;100998.78;5048978;28;20501;-75
2023/05/18 08:10:53;;;;;;;76.28;70.00;;;;;;;17.42;100.00;101003.25;5049053;28;20045;-76
2023/05/18 08:13:19;;;;;;;74.22;68.13;;;;;;;17.30;100.00;101000.66;5047425;28;20045;-76
2023/05/18 08:15:46;;;;;;;81.28;74.50;;;;;;;17.23;100.00;101005.38;5044417;28;20106;-76
2023/05/18 08:18:16;;;;;;;78.45;71.75;;;;;;;17.65;100.00;101005.78;5047576;28;20056;-75
2023/05/18 08:20:43;;;;;;;92.57;84.97;;;;;;;17.72;100.00;100995.66;5037913;28;20044;-75
2023/05/18 08:23:10;;;;;;;65.60;60.10;;;;;;;17.53;100.00;100999.69;5046743;28;20140;-76
2023/05/18 08:25:37;;;;;;;64.60;59.20;;;;;;;18.05;100.00;100999.38;5048721;28;20052;-76
2023/05/18 08:28:04;;;;;;;83.82;76.78;;;;;;;17.92;100.00;100999.75;5046539;28;20424;-76
2023/05/18 08:30:31;;;;;;;84.88;78.07;;;;;;;18.75;100.00;100995.91;5053896;28;20040;-76
2023/05/18 08:32:58;;;;;;;94.15;86.85;;;;;;;18.71;100.00;101000.16;5060843;28;20427;-75
2023/05/18 08:35:26;;;;;;;87.25;80.45;;;;;;;18.76;100.00;100996.75;5050879;28;20049;-76
2023/05/18 08:37:55;;;;;;;76.75;70.47;;;;;;;19.01;100.00;101003.44;5061170;28;20519;-75
2023/05/18 08:40:22;;;;;;;42.00;38.08;;;;;;;18.85;100.00;101000.63;5055169;28;20067;-76
2023/05/18 08:42:55;;;;;;;60.35;54.88;;;;;;;18.87;100.00;101011.91;5050775;28;20037;-76
2023/05/18 08:45:29;;;;;;;58.70;53.85;;;;;;;18.58;100.00;101018.56;5057706;28;20057;-75
2023/05/18 08:47:58;;;;;;;55.00;50.28;;;;;;;18.30;100.00;101015.81;5058699;28;20045;-76
2023/05/18 08:50:30;;;;;;;60.83;54.92;;;;;;;18.31;100.00;101025.53;5059101;28;20476;-75
2023/05/18 08:53:02;;;;;;;67.00;61.30;;;;;;;18.31;100.00;101019.34;5052977;28;20052;-76
2023/05/18 08:55:29;;;;;;;72.78;66.53;;;;;;;18.57;100.00;101022.31;5056790;28;20067;-76
2023/05/18 08:57:59;;;;;;;60.72;55.13;;;;;;;18.26;100.00;101014.69;5051994;28;20049;-76
2023/05/18 09:00:26;;;;;;;47.15;42.53;;;;;;;18.13;100.00;101017.75;5047512;28;20448;-73
2023/05/18 09:02:53;;;;;;;49.70;44.92;;;;;;;18.03;100.00;101018.44;5046074;28;20056;-77
2023/05/18 09:05:22;;;;;;;50.35;45.70;;;;;;;18.17;100.00;101018.06;5048090;28;20040;-76
2023/05/18 09:07:51;;;;;;;61.15;54.70;;;;;;;18.35;100.00;101017.75;5049280;28;20045;-76
2023/05/18 09:10:18;;;;;;;55.03;49.65;;;;;;;18.28;100.00;101020.66;5048500;28;20052;-76
2023/05/18 09:12:48;;;;;;;53.45;48.63;;;;;;;17.85;100.00;101024.91;5045236;28;20041;-76
2023/05/18 09:15:17;;;;;;;48.95;44.25;;;;;;;18.67;100.00;101017.88;5042235;28;20045;-76
2023/05/18 09:17:44;;;;;;;75.35;68.78;;;;;;;18.28;100.00;101023.34;5043466;28;20041;-76
2023/05/18 09:20:12;;;;;;;81.47;74.78;;;;;;;18.59;100.00;101026.38;5038423;28;20056;-76
2023/05/18 09:22:40;;;;;;;64.13;58.13;;;;;;;18.37;100.00;101023.72;5037437;28;20052;-76
2023/05/18 09:25:10;;;;;;;66.82;61.20;;;;;;;18.36;100.00;101021.25;5038477;28;20085;-77
2023/05/18 09:27:38;;;;;;;63.70;58.28;;;;;;;18.31;100.00;101020.16;5040590;28;20433;-76
2023/05/18 09:30:10;;;;;;;74.28;68.22;;;;;;;18.34;100.00;101018.84;5044867;28;20048;-76
2023/05/18 09:32:37;;;;;;;58.45;53.40;;;;;;;18.25;100.00;101012.28;5042495;28;20534;-76
2023/05/18 09:35:05;;;;;;;51.90;47.00;;;;;;;18.52;100.00;101006.94;5040926;28;20056;-76
2023/05/18 09:37:33;;;;;;;77.30;70.85;;;;;;;18.60;100.00;101016.44;5043073;28;20064;-77
2023/05/18 09:40:01;;;;;;;67.65;61.90;;;;;;;19.21;100.00;101011.69;5039277;28;20500;-76
2023/05/18 09:42:35;;;;;;;82.70;76.30;;;;;;;19.35;100.00;101009.38;5047079;28;20496;-76
2023/05/18 09:45:02;;;;;;;68.95;63.17;;;;;;;18.82;100.00;101002.97;5044625;28;20049;-76
2023/05/18 09:47:29;;;;;;;56.00;51.17;;;;;;;19.11;100.00;101004.34;5045552;28;20049;-76
2023/05/18 09:49:57;;;;;;;49.35;45.00;;;;;;;18.77;100.00;100995.69;5046898;28;20212;-76
2023/05/18 09:52:23;;;;;;;48.92;43.10;;;;;;;19.31;100.00;100998.31;5043335;28;20053;-76
2023/05/18 09:54:59;;;;;;;41.30;37.70;;;;;;;18.98;100.00;100999.38;5045364;28;20520;-76
2023/05/18 09:57:26;;;;;;;53.38;48.63;;;;;;;19.41;100.00;100998.41;5042817;28;20064;-76
2023/05/18 10:00:09;;;;;;;58.67;53.30;;;;;;;19.32;100.00;100993.75;5046031;28;20083;-74
2023/05/18 10:02:37;;;;;;;;;;;;;;;18.98;100.00;100992.13;5047302;28;20045;-74
2023/05/18 10:05:05;;;;;;;39.80;36.70;;;;;;;18.89;100.00;100987.47;5048399;28;19921;-74
2023/05/18 10:07:36;;;;;;;51.42;46.97;;;;;;;18.94;100.00;100993.69;5045933;28;20500;-74
2023/05/18 10:10:03;;;;;;;48.40;43.95;;;;;;;18.97;100.00;100998.56;5043922;28;20059;-76
2023/05/18 10:12:30;;;;;;;54.38;49.97;;;;;;;19.19;100.00;100990.41;4943625;28;20053;-75
2023/05/18 10:14:59;;;;;;;40.83;37.28;;;;;;;18.90;100.00;100989.06;5017369;28;20057;-76
2023/05/18 10:17:27;;;;;;;45.10;40.88;;;;;;;19.55;100.00;100989.88;5024142;28;20502;-77
2023/05/18 10:19:56;;;;;;;67.97;62.60;;;;;;;19.74;100.00;100995.69;5025454;28;20045;-76
2023/05/18 10:22:25;;;;;;;58.00;53.42;;;;;;;19.49;100.00;101002.50;5026236;28;20045;-76
2023/05/18 10:24:52;;;;;;;46.55;42.50;;;;;;;19.37;100.00;100993.78;5026289;28;20052;-76
2023/05/18 10:27:26;;;;;;;43.58;39.58;;;;;;;19.35;100.00;100998.63;5025706;28;20049;-76
2023/05/18 10:29:57;;;;;;;45.53;41.60;;;;;;;19.38;100.00;101003.50;5026662;28;20059;-76
2023/05/18 10:32:26;;;;;;;58.83;54.13;;;;;;;19.49;100.00;100993.63;5019263;28;20054;-76
2023/05/18 10:34:54;;;;;;;50.55;46.10;;;;;;;19.30;100.00;100982.41;5020439;28;20049;-76
2023/05/18 10:37:23;;;;;;;59.38;54.78;;;;;;;19.76;100.00;100978.19;5013409;28;20050;-76
2023/05/18 10:39:51;;;;;;;50.13;45.85;;;;;;;20.21;100.00;100973.28;5015108;28;20052;-76
2023/05/18 10:42:19;;;;;;;47.38;43.65;;;;;;;19.84;100.00;100982.28;5024220;28;20049;-76
2023/05/18 10:44:48;;;;;;;47.83;43.60;;;;;;;19.63;100.00;100976.72;5018541;28;20041;-76
2023/05/18 10:47:15;;;;;;;51.38;46.92;;;;;;;18.95;100.00;100965.72;5017217;28;20057;-76
2023/05/18 10:49:47;;;;;;;53.20;48.95;;;;;;;18.83;100.00;100975.03;5016724;28;20494;-76
2023/05/18 10:52:16;;;;;;;47.70;43.80;;;;;;;19.04;100.00;100963.38;5019144;28;20085;-76
2023/05/18 10:54:44;;;;;;;41.65;38.63;;;;;;;18.83;100.00;100966.94;5020282;28;20108;-76
2023/05/18 10:57:13;;;;;;;51.42;47.30;;;;;;;19.03;100.00;100963.63;5023064;28;20497;-76
2023/05/18 10:59:42;;;;;;;56.60;51.90;;;;;;;19.05;100.00;100964.97;5012176;28;20057;-77